Time;durP1;ratioP1;P1;durP2;ratioP2;P2;SDS_P1;SDS_P2;PMS_P1;PMS_P2;Temp;Humidity;BMP_temperature;BMP_pressure;BME280_temperature;BME280_humidity;BME280_pressure;Samples;Min_cycle;Max_cycle;Signal;HPM_P1;HPM_P2
2023/01/22 00:02:01;;;;;;;47.30;22.17;;;2.30;99.90;;;;;;5069627;28;20032;-72
2023/01/22 00:04:27;;;;;;;38.38;18.70;;;2.30;99.90;;;;;;5061009;28;20380;-71
2023/01/22 00:06:53;;;;;;;36.15;20.55;;;2.40;99.90;;;;;;5062737;28;20029;-71
2023/01/22 00:09:21;;;;;;;30.45;16.35;;;2.40;99.90;;;;;;5068757;28;20071;-72
2023/01/22 00:11:50;;;;;;;28.85;14.38;;;2.40;99.90;;;;;;5057401;28;20021;-72
2023/01/22 00:14:16;;;;;;;27.50;14.43;;;2.50;99.90;;;;;;5067948;28;20025;-71
2023/01/22 00:16:42;;;;;;;30.65;15.15;;;2.50;99.90;;;;;;5063161;28;20472;-72
2023/01/22 00:19:08;;;;;;;43.53;24.60;;;2.60;99.90;;;;;;5060307;28;20060;-71
2023/01/22 00:21:34;;;;;;;25.02;12.27;;;2.60;99.90;;;;;;5069963;28;20534;-71
2023/01/22 00:24:00;;;;;;;25.73;13.02;;;2.60;99.90;;;;;;5066221;28;20028;-72
2023/01/22 00:26:26;;;;;;;24.95;13.25;;;2.70;99.90;;;;;;5066506;28;20032;-71
2023/01/22 00:28:51;;;;;;;23.33;11.07;;;2.70;99.90;;;;;;5064873;28;20384;-71
2023/01/22 00:31:17;;;;;;;24.23;11.40;;;2.70;99.90;;;;;;5059320;28;20404;-72
2023/01/22 00:33:45;;;;;;;25.60;12.82;;;2.70;99.90;;;;;;5069851;28;20040;-71
2023/01/22 00:36:17;;;;;;;26.67;11.75;;;2.80;99.90;;;;;;5058953;28;20024;-71
2023/01/22 00:38:42;;;;;;;24.15;11.70;;;2.80;99.90;;;;;;5063453;28;20477;-71
2023/01/22 00:41:09;;;;;;;24.27;11.52;;;2.80;99.90;;;;;;5066463;28;20098;-71
2023/01/22 00:43:37;;;;;;;23.52;11.32;;;2.80;99.90;;;;;;5038915;28;20028;-71
2023/01/22 00:46:04;;;;;;;37.28;20.42;;;2.90;99.90;;;;;;5068946;28;20025;-71
2023/01/22 00:48:30;;;;;;;28.13;13.82;;;2.90;99.90;;;;;;5061215;28;20078;-71
2023/01/22 00:50:55;;;;;;;31.42;14.52;;;3.00;99.90;;;;;;5061773;28;20366;-71
2023/01/22 00:53:21;;;;;;;26.85;12.90;;;3.00;99.90;;;;;;5068277;28;20038;-71
2023/01/22 00:55:50;;;;;;;24.45;11.25;;;3.00;99.90;;;;;;5056615;28;20029;-71
2023/01/22 00:58:16;;;;;;;22.52;10.32;;;3.10;99.90;;;;;;5049012;28;20017;-71
2023/01/22 01:00:41;;;;;;;23.85;10.52;;;3.10;99.90;;;;;;5068643;28;20046;-71
2023/01/22 01:03:26;;;;;;;23.77;10.65;;;3.10;99.90;;;;;;5072898;28;20112;-71
2023/01/22 01:06:03;;;;;;;23.27;10.43;;;3.10;99.90;;;;;;5068957;28;20487;-71
2023/01/22 01:08:32;;;;;;;21.55;10.80;;;3.10;99.90;;;;;;5060547;28;20043;-72
2023/01/22 01:11:03;;;;;;;20.10;9.75;;;3.10;99.90;;;;;;5060271;28;20037;-71
2023/01/22 01:13:32;;;;;;;20.75;9.27;;;3.10;99.90;;;;;;5068447;28;20029;-70
2023/01/22 01:15:59;;;;;;;20.90;10.27;;;3.10;99.90;;;;;;5055296;28;20550;-71
2023/01/22 01:18:25;;;;;;;20.52;9.13;;;3.10;99.90;;;;;;5065034;28;20048;-72
2023/01/22 01:20:55;;;;;;;19.38;9.20;;;3.10;99.90;;;;;;5063538;28;20020;-73
2023/01/22 01:23:21;;;;;;;19.38;8.73;;;3.10;99.90;;;;;;5072416;28;20111;-72
2023/01/22 01:25:47;;;;;;;23.55;9.20;;;3.10;99.90;;;;;;5055950;28;20075;-73
2023/01/22 01:28:12;;;;;;;21.45;9.68;;;3.10;99.90;;;;;;5066702;28;20033;-72
2023/01/22 01:30:38;;;;;;;19.45;9.57;;;3.10;99.90;;;;;;5061561;28;20036;-72
2023/01/22 01:33:03;;;;;;;21.35;10.02;;;3.10;99.90;;;;;;5060027;28;20044;-72
2023/01/22 01:35:29;;;;;;;18.17;8.88;;;3.20;99.90;;;;;;5068565;28;20020;-73
2023/01/22 01:37:55;;;;;;;20.25;9.32;;;3.20;99.90;;;;;;5055389;28;20103;-72
2023/01/22 01:40:20;;;;;;;18.90;9.38;;;3.20;99.90;;;;;;5065367;28;20450;-72
2023/01/22 01:42:46;;;;;;;18.60;8.70;;;3.30;99.90;;;;;;5062444;28;20049;-72
2023/01/22 01:45:28;;;;;;;16.75;7.28;;;3.30;99.90;;;;;;5058328;28;20029;-70
2023/01/22 01:48:02;;;;;;;;;;;3.30;99.90;;;;;;5069068;28;20116;-73
2023/01/22 01:50:28;;;;;;;18.15;10.00;;;3.30;99.90;;;;;;5059956;28;19912;-71
2023/01/22 01:52:56;;;;;;;15.73;6.68;;;3.30;99.90;;;;;;5060778;28;20033;-72
2023/01/22 01:55:27;;;;;;;17.52;9.30;;;3.30;99.90;;;;;;5067240;28;20079;-72
2023/01/22 01:57:55;;;;;;;17.85;8.52;;;3.30;99.90;;;;;;5055406;28;20040;-71
2023/01/22 02:00:21;;;;;;;16.25;7.60;;;3.30;99.90;;;;;;5065341;28;20452;-71
2023/01/22 02:02:48;;;;;;;19.88;8.38;;;3.30;99.90;;;;;;5062843;28;20029;-70
2023/01/22 02:05:13;;;;;;;18.60;7.22;;;3.40;99.90;;;;;;5057771;28;20033;-70
2023/01/22 02:07:39;;;;;;;13.38;6.88;;;3.40;99.90;;;;;;5068409;28;20070;-70
2023/01/22 02:10:05;;;;;;;13.15;5.85;;;3.40;99.90;;;;;;5076317;28;20036;-71
2023/01/22 02:12:32;;;;;;;10.70;4.97;;;3.40;99.90;;;;;;5063905;28;20017;-73
2023/01/22 02:15:03;;;;;;;14.18;6.82;;;3.40;99.90;;;;;;5063855;28;20028;-72
2023/01/22 02:17:29;;;;;;;13.52;6.45;;;3.50;99.90;;;;;;5055489;28;20087;-72
2023/01/22 02:19:55;;;;;;;15.05;6.03;;;3.50;99.90;;;;;;5068379;28;20029;-71
2023/01/22 02:22:29;;;;;;;13.88;6.30;;;3.50;99.90;;;;;;5058191;28;20031;-70
2023/01/22 02:24:55;;;;;;;12.77;6.25;;;3.50;99.90;;;;;;5060525;28;20025;-71
2023/01/22 02:27:21;;;;;;;14.48;6.15;;;3.50;99.90;;;;;;5052400;28;20031;-70
2023/01/22 02:29:47;;;;;;;14.63;7.30;;;3.40;99.90;;;;;;5058965;28;20036;-72
2023/01/22 02:32:13;;;;;;;24.05;10.65;;;3.40;99.90;;;;;;5070234;28;20031;-70
2023/01/22 02:34:38;;;;;;;14.48;5.93;;;3.30;99.90;;;;;;5064767;28;20032;-70
2023/01/22 02:37:04;;;;;;;19.23;8.32;;;3.30;99.90;;;;;;5062948;28;20037;-71
2023/01/22 02:39:30;;;;;;;15.85;7.07;;;3.30;99.90;;;;;;5071821;28;20036;-73
2023/01/22 02:41:56;;;;;;;14.55;6.82;;;3.20;99.90;;;;;;5058877;28;20112;-72
2023/01/22 02:44:22;;;;;;;18.90;9.18;;;3.20;99.90;;;;;;5068464;28;20021;-71
2023/01/22 02:46:47;;;;;;;19.77;9.35;;;3.20;99.90;;;;;;5065520;28;20039;-71
2023/01/22 02:49:13;;;;;;;16.85;8.02;;;3.20;99.90;;;;;;5061236;28;20068;-72
2023/01/22 02:51:38;;;;;;;17.75;7.28;;;3.20;99.90;;;;;;5072031;28;20119;-72
2023/01/22 02:54:04;;;;;;;18.80;9.50;;;3.20;99.90;;;;;;5041695;28;20029;-72
2023/01/22 02:56:30;;;;;;;13.25;6.75;;;3.10;99.90;;;;;;5067325;28;20025;-72
2023/01/22 02:58:55;;;;;;;16.15;7.43;;;3.10;99.90;;;;;;5048699;28;20076;-72
2023/01/22 03:01:23;;;;;;;22.10;9.32;;;3.10;99.90;;;;;;5060177;28;20051;-71
2023/01/22 03:03:52;;;;;;;17.13;7.93;;;3.10;99.90;;;;;;5071328;28;20025;-71
2023/01/22 03:06:21;;;;;;;22.90;9.75;;;3.10;99.90;;;;;;5061626;28;20385;-73
2023/01/22 03:08:48;;;;;;;21.13;9.20;;;3.10;99.90;;;;;;5064600;28;20115;-71
2023/01/22 03:11:14;;;;;;;16.90;7.70;;;3.10;99.90;;;;;;5069031;28;20032;-70
2023/01/22 03:21:52;;;;;;;17.23;7.53;;;3.00;99.90;;;;;;5057940;28;20119;-71
2023/01/22 03:24:17;;;;;;;17.65;8.00;;;3.00;99.90;;;;;;5068382;28;20439;-72
2023/01/22 03:26:43;;;;;;;15.20;6.90;;;3.00;99.90;;;;;;5064489;28;20036;-71
2023/01/22 03:29:08;;;;;;;13.60;6.10;;;3.00;99.90;;;;;;5061147;28;20041;-71
2023/01/22 03:31:34;;;;;;;14.40;6.30;;;3.00;99.90;;;;;;5071049;28;20032;-70
2023/01/22 03:34:00;;;;;;;14.77;6.20;;;3.00;99.90;;;;;;5058848;28;20036;-72
2023/01/22 03:36:25;;;;;;;14.60;6.72;;;3.10;99.90;;;;;;5067208;28;20382;-72
2023/01/22 03:38:51;;;;;;;14.00;6.00;;;3.10;99.90;;;;;;5067355;28;20484;-72
2023/01/22 03:41:16;;;;;;;14.80;5.95;;;3.10;99.90;;;;;;5074569;28;20029;-71
2023/01/22 03:43:43;;;;;;;14.25;6.30;;;3.10;99.90;;;;;;5057838;28;20055;-71
2023/01/22 03:46:17;;;;;;;12.57;5.80;;;3.20;99.90;;;;;;5068889;28;20389;-72
2023/01/22 03:48:43;;;;;;;15.60;5.95;;;3.30;99.90;;;;;;5064183;28;20047;-71
2023/01/22 03:51:11;;;;;;;13.23;6.15;;;3.30;99.90;;;;;;5060821;28;20032;-72
2023/01/22 03:53:38;;;;;;;13.57;6.13;;;3.30;99.90;;;;;;5070382;28;20025;-72
2023/01/22 03:56:06;;;;;;;13.60;6.22;;;3.40;99.90;;;;;;5073548;28;20028;-71
2023/01/22 03:58:32;;;;;;;13.75;5.75;;;3.40;99.90;;;;;;5065723;28;20021;-71
2023/01/22 04:01:04;;;;;;;10.82;5.18;;;3.40;99.90;;;;;;5071475;28;20028;-72
2023/01/22 04:03:29;;;;;;;12.03;5.43;;;3.40;99.90;;;;;;5073731;28;20024;-71
2023/01/22 04:05:58;;;;;;;12.00;5.25;;;3.40;99.90;;;;;;5071128;28;20333;-71
2023/01/22 04:08:25;;;;;;;11.40;4.50;;;3.40;99.90;;;;;;5066391;28;20119;-70
2023/01/22 04:10:50;;;;;;;13.77;5.40;;;3.50;99.90;;;;;;5064464;28;20033;-72
2023/01/22 04:13:16;;;;;;;12.68;5.68;;;3.50;99.90;;;;;;5059404;28;20075;-71
2023/01/22 04:15:43;;;;;;;12.55;5.68;;;3.50;99.90;;;;;;5070245;28;20024;-72
2023/01/22 04:18:10;;;;;;;12.07;6.00;;;3.50;99.90;;;;;;5058652;28;20201;-70
2023/01/22 04:20:35;;;;;;;11.65;5.18;;;3.60;99.90;;;;;;5046772;28;20465;-70
2023/01/22 04:23:01;;;;;;;12.10;5.25;;;3.60;99.90;;;;;;5066200;28;20077;-72
2023/01/22 04:25:26;;;;;;;14.15;5.55;;;3.50;99.90;;;;;;5057795;28;20025;-72
2023/01/22 04:27:52;;;;;;;13.98;5.40;;;3.50;99.90;;;;;;5070291;28;20041;-72
2023/01/22 04:30:17;;;;;;;13.60;5.60;;;3.50;99.90;;;;;;5059704;28;20035;-72
2023/01/22 04:32:43;;;;;;;13.30;5.75;;;3.50;99.90;;;;;;5063786;28;20064;-69
2023/01/22 04:35:09;;;;;;;13.40;5.60;;;3.40;99.90;;;;;;5066463;28;20032;-71
2023/01/22 04:37:34;;;;;;;15.02;5.93;;;3.40;99.90;;;;;;5038660;28;20155;-69
2023/01/22 04:40:00;;;;;;;8.95;4.13;;;3.40;99.90;;;;;;5069218;28;20029;-71
2023/01/22 04:42:26;;;;;;;12.38;5.75;;;3.30;99.90;;;;;;5060715;28;20528;-72
2023/01/22 04:44:52;;;;;;;14.43;5.97;;;3.30;99.90;;;;;;5062193;28;20025;-69
2023/01/22 04:47:17;;;;;;;14.18;6.05;;;3.20;99.90;;;;;;5067838;28;20031;-72
2023/01/22 04:49:43;;;;;;;14.43;5.63;;;3.20;99.90;;;;;;5055908;28;20040;-71
2023/01/22 04:52:08;;;;;;;12.90;5.47;;;3.20;99.90;;;;;;5073366;28;20040;-72
2023/01/22 04:54:34;;;;;;;15.73;6.00;;;3.10;99.90;;;;;;5064491;28;20071;-70
2023/01/22 04:56:59;;;;;;;17.02;5.68;;;3.00;99.90;;;;;;5065087;28;20037;-70
2023/01/22 04:59:25;;;;;;;17.52;6.18;;;3.00;99.90;;;;;;5057328;28;20106;-72
2023/01/22 05:01:51;;;;;;;14.38;5.45;;;2.90;99.90;;;;;;5069652;28;20033;-72
2023/01/22 05:04:17;;;;;;;13.13;5.63;;;2.90;99.90;;;;;;5059191;28;20445;-73
2023/01/22 05:06:42;;;;;;;14.93;5.50;;;2.80;99.90;;;;;;5063158;28;20055;-70
2023/01/22 05:09:08;;;;;;;14.07;6.35;;;2.80;99.90;;;;;;5066031;28;20453;-72
2023/01/22 05:11:34;;;;;;;14.05;5.85;;;2.80;99.90;;;;;;5067086;28;20032;-71
2023/01/22 05:13:59;;;;;;;14.93;6.70;;;2.70;99.90;;;;;;5053057;28;20029;-70
2023/01/22 05:16:25;;;;;;;14.70;5.90;;;2.70;99.90;;;;;;5042356;28;20112;-72
2023/01/22 05:18:50;;;;;;;15.68;6.43;;;2.60;99.90;;;;;;5061961;28;20176;-72
2023/01/22 05:21:16;;;;;;;12.95;5.65;;;2.60;99.90;;;;;;5067054;28;20048;-72
2023/01/22 05:23:42;;;;;;;14.98;6.57;;;2.60;99.90;;;;;;5038453;28;20074;-70
2023/01/22 05:26:08;;;;;;;15.23;6.25;;;2.60;99.90;;;;;;5067980;28;20066;-71
2023/01/22 05:28:34;;;;;;;13.57;5.70;;;2.50;99.90;;;;;;5061274;28;20427;-70
2023/01/22 05:30:59;;;;;;;14.77;6.28;;;2.50;99.90;;;;;;5060386;28;20120;-72
2023/01/22 05:33:28;;;;;;;14.95;6.50;;;2.50;99.90;;;;;;5067861;28;20035;-71
2023/01/22 05:36:01;;;;;;;17.23;6.60;;;2.40;99.90;;;;;;5055901;28;20148;-71
2023/01/22 05:38:28;;;;;;;17.17;6.68;;;2.40;99.90;;;;;;5065151;28;20039;-70
2023/01/22 05:40:53;;;;;;;17.45;6.80;;;2.40;99.90;;;;;;5064198;28;20025;-70
2023/01/22 05:43:19;;;;;;;15.18;6.82;;;2.30;99.90;;;;;;5057817;28;20025;-72
2023/01/22 05:45:45;;;;;;;14.10;6.28;;;2.30;99.90;;;;;;5069227;28;20085;-71
2023/01/22 05:48:10;;;;;;;15.13;6.38;;;2.30;99.90;;;;;;5057983;28;20024;-71
2023/01/22 05:50:37;;;;;;;15.88;6.40;;;2.30;99.90;;;;;;5063558;28;20045;-71
2023/01/22 05:53:03;;;;;;;15.75;6.55;;;2.30;99.90;;;;;;5065179;28;20108;-71
2023/01/22 05:55:29;;;;;;;15.02;6.13;;;2.30;99.90;;;;;;5056270;28;20057;-71
2023/01/22 05:57:54;;;;;;;17.13;6.78;;;2.30;99.90;;;;;;5068885;28;20029;-72
2023/01/22 06:00:20;;;;;;;15.63;6.85;;;2.40;99.90;;;;;;5059352;28;20023;-71
2023/01/22 06:02:45;;;;;;;18.08;6.57;;;2.40;99.90;;;;;;5066419;28;20055;-71
2023/01/22 06:05:11;;;;;;;16.48;7.05;;;2.40;99.90;;;;;;5070199;28;20028;-71
2023/01/22 06:07:37;;;;;;;15.60;6.28;;;2.30;99.90;;;;;;5059751;28;20462;-71
2023/01/22 06:10:03;;;;;;;16.38;6.65;;;2.30;99.90;;;;;;5068255;28;20043;-71
2023/01/22 06:12:28;;;;;;;16.15;6.75;;;2.30;99.90;;;;;;5068792;28;20071;-71
2023/01/22 06:14:54;;;;;;;14.85;6.50;;;2.40;99.90;;;;;;5067674;28;20056;-71
2023/01/22 06:17:20;;;;;;;16.70;6.32;;;2.40;99.90;;;;;;5061146;28;20049;-70
2023/01/22 06:19:46;;;;;;;16.45;5.55;;;2.40;99.90;;;;;;5072916;28;20033;-71
2023/01/22 06:22:11;;;;;;;17.35;6.72;;;2.50;99.90;;;;;;5061534;28;20035;-71
2023/01/22 06:24:38;;;;;;;16.80;6.82;;;2.50;99.90;;;;;;5048837;28;20069;-71
2023/01/22 06:27:04;;;;;;;13.82;6.15;;;2.50;99.90;;;;;;5068957;28;20056;-72
2023/01/22 06:29:29;;;;;;;18.27;6.97;;;2.60;99.90;;;;;;5059768;28;20063;-70
2023/01/22 06:31:55;;;;;;;14.80;6.40;;;2.70;99.90;;;;;;5072467;28;20075;-72
2023/01/22 06:34:21;;;;;;;17.02;7.38;;;2.70;99.90;;;;;;5062570;28;20443;-72
2023/01/22 06:36:47;;;;;;;16.23;6.65;;;2.80;99.90;;;;;;5065435;28;20116;-72
2023/01/22 06:39:13;;;;;;;13.70;6.10;;;2.80;99.90;;;;;;5070015;28;20029;-70
2023/01/22 06:41:39;;;;;;;16.35;6.80;;;2.90;99.90;;;;;;5058948;28;20366;-70
2023/01/22 06:44:04;;;;;;;17.95;7.05;;;2.90;99.90;;;;;;5071511;28;20029;-72
2023/01/22 06:46:30;;;;;;;15.00;6.40;;;2.90;99.90;;;;;;5045531;28;20023;-72
2023/01/22 06:48:57;;;;;;;19.20;7.00;;;3.00;99.90;;;;;;5063975;28;20492;-71
2023/01/22 06:51:23;;;;;;;17.73;7.05;;;3.00;99.90;;;;;;5070993;28;20109;-72
2023/01/22 06:53:49;;;;;;;16.38;6.15;;;3.00;99.90;;;;;;5080640;28;20119;-71
2023/01/22 06:56:14;;;;;;;16.92;6.50;;;3.10;99.90;;;;;;5070194;28;20017;-71
2023/01/22 06:58:40;;;;;;;14.45;5.63;;;3.10;99.90;;;;;;5065119;28;20031;-72
2023/01/22 07:01:05;;;;;;;15.65;6.00;;;3.10;99.90;;;;;;5062403;28;20461;-71
2023/01/22 07:03:31;;;;;;;15.10;5.75;;;3.10;99.90;;;;;;5071951;28;20480;-71
2023/01/22 07:05:58;;;;;;;20.20;6.15;;;3.10;99.90;;;;;;5058932;28;20767;-71
2023/01/22 07:08:25;;;;;;;12.25;5.55;;;3.10;99.90;;;;;;5068115;28;20029;-72
2023/01/22 07:10:51;;;;;;;13.32;5.00;;;3.10;99.90;;;;;;5048256;28;20388;-71
2023/01/22 07:13:16;;;;;;;13.48;5.85;;;3.10;99.90;;;;;;5060826;28;20021;-72
2023/01/22 07:15:42;;;;;;;11.90;5.30;;;3.10;99.90;;;;;;5071632;28;20032;-72
2023/01/22 07:18:09;;;;;;;17.38;6.07;;;3.10;99.90;;;;;;5059888;28;20136;-70
2023/01/22 07:20:35;;;;;;;14.13;5.45;;;3.10;99.90;;;;;;5066372;28;20043;-69
2023/01/22 07:23:01;;;;;;;10.15;5.18;;;3.10;99.90;;;;;;5067186;28;20024;-70
2023/01/22 07:25:27;;;;;;;18.85;5.82;;;3.10;99.90;;;;;;5059554;28;20116;-69
2023/01/22 07:28:04;;;;;;;11.38;4.95;;;3.20;99.90;;;;;;5071439;28;20392;-70
2023/01/22 07:30:30;;;;;;;8.75;4.00;;;3.20;99.90;;;;;;5062879;28;20042;-72
2023/01/22 07:33:00;;;;;;;9.95;4.75;;;3.10;99.90;;;;;;5063379;28;20067;-71
2023/01/22 07:35:26;;;;;;;10.90;4.13;;;3.20;99.90;;;;;;5070629;28;20078;-72
2023/01/22 07:37:53;;;;;;;12.75;4.88;;;3.20;99.90;;;;;;5058105;28;20029;-72
2023/01/22 07:40:19;;;;;;;12.07;4.80;;;3.20;99.90;;;;;;5068576;28;20040;-72
2023/01/22 07:42:45;;;;;;;11.45;4.80;;;3.20;99.90;;;;;;5064549;28;20029;-71
2023/01/22 07:45:10;;;;;;;11.50;4.15;;;3.20;99.90;;;;;;5060738;28;20389;-71
2023/01/22 07:47:36;;;;;;;8.63;4.28;;;3.20;99.90;;;;;;5071472;28;20060;-70
2023/01/22 07:50:02;;;;;;;11.85;4.35;;;3.30;99.90;;;;;;5058789;28;20037;-69
2023/01/22 07:52:27;;;;;;;12.30;4.43;;;3.30;99.90;;;;;;5067057;28;20078;-72
2023/01/22 07:54:53;;;;;;;10.25;3.85;;;3.30;99.90;;;;;;5065654;28;20473;-71
2023/01/22 07:57:18;;;;;;;9.95;4.15;;;3.30;99.90;;;;;;5059431;28;20029;-69
2023/01/22 07:59:44;;;;;;;9.48;4.60;;;3.30;99.90;;;;;;5072531;28;20032;-72
2023/01/22 08:02:11;;;;;;;10.20;4.53;;;3.30;99.90;;;;;;5064701;28;20013;-69
2023/01/22 08:04:38;;;;;;;11.10;4.50;;;3.30;99.90;;;;;;5070347;28;20060;-70
2023/01/22 08:07:03;;;;;;;15.60;4.40;;;3.40;99.90;;;;;;5064497;28;20026;-69
2023/01/22 08:09:29;;;;;;;8.52;3.42;;;3.40;99.90;;;;;;5065530;28;20052;-68
2023/01/22 08:11:54;;;;;;;10.68;3.95;;;3.40;99.90;;;;;;5064166;28;20039;-69
2023/01/22 08:14:20;;;;;;;8.10;3.70;;;3.30;99.90;;;;;;5073468;28;20055;-69
2023/01/22 08:16:45;;;;;;;10.50;4.32;;;3.30;99.90;;;;;;5058642;28;20487;-70
2023/01/22 08:19:11;;;;;;;11.02;4.25;;;3.30;99.90;;;;;;5053858;28;20465;-70
2023/01/22 08:21:37;;;;;;;13.20;3.65;;;3.30;99.90;;;;;;5047994;28;20043;-69
2023/01/22 08:24:04;;;;;;;13.00;4.55;;;3.30;99.90;;;;;;5042946;28;20347;-68
2023/01/22 08:26:29;;;;;;;9.90;3.85;;;3.30;99.90;;;;;;5040126;28;20033;-68
2023/01/22 08:28:55;;;;;;;9.38;3.85;;;3.30;99.90;;;;;;5044603;28;20034;-69
2023/01/22 08:31:20;;;;;;;10.35;3.90;;;3.30;99.90;;;;;;5050352;28;20024;-68
2023/01/22 08:33:46;;;;;;;10.55;4.10;;;3.30;99.90;;;;;;5040730;28;20028;-69
2023/01/22 08:36:11;;;;;;;8.65;3.90;;;3.30;99.90;;;;;;5042979;28;20065;-69
2023/01/22 08:38:37;;;;;;;8.68;4.15;;;3.30;99.90;;;;;;5048176;28;20029;-68
2023/01/22 08:41:03;;;;;;;8.65;4.22;;;3.30;99.90;;;;;;5036628;28;20018;-67
2023/01/22 08:43:28;;;;;;;10.02;4.15;;;3.30;99.90;;;;;;5048313;28;20026;-71
2023/01/22 08:45:54;;;;;;;8.60;4.07;;;3.40;99.90;;;;;;5041609;28;20033;-68
2023/01/22 08:48:20;;;;;;;12.23;4.35;;;3.40;99.90;;;;;;5041400;28;20052;-69
2023/01/22 08:50:45;;;;;;;9.52;3.83;;;3.40;99.90;;;;;;5048657;28;20374;-68
2023/01/22 08:53:11;;;;;;;8.63;3.30;;;3.40;99.90;;;;;;5036799;28;20029;-68
2023/01/22 08:55:37;;;;;;;9.07;3.45;;;3.40;99.90;;;;;;5046923;28;20025;-69
2023/01/22 08:58:02;;;;;;;10.23;4.25;;;3.40;99.90;;;;;;5042799;28;20056;-69
2023/01/22 09:00:28;;;;;;;9.75;3.55;;;3.40;99.90;;;;;;5039959;28;20025;-69
2023/01/22 09:02:58;;;;;;;11.02;3.92;;;3.40;99.90;;;;;;5049778;28;20461;-69
2023/01/22 09:05:24;;;;;;;14.82;5.32;;;3.40;99.90;;;;;;5052436;28;20373;-67
2023/01/22 09:07:50;;;;;;;8.63;4.45;;;3.40;99.90;;;;;;5053465;28;20113;-68
2023/01/22 09:10:16;;;;;;;11.88;4.15;;;3.50;99.90;;;;;;5034996;28;20090;-68
2023/01/22 09:12:42;;;;;;;11.25;4.57;;;3.50;99.90;;;;;;5052127;28;20473;-68
2023/01/22 09:15:08;;;;;;;7.32;3.95;;;3.50;99.90;;;;;;5053094;28;20033;-69
2023/01/22 09:17:33;;;;;;;9.77;4.07;;;3.50;99.90;;;;;;5058185;28;20044;-69
2023/01/22 09:19:59;;;;;;;10.02;3.95;;;3.60;99.90;;;;;;5073287;28;20101;-67
2023/01/22 09:22:24;;;;;;;8.23;3.45;;;3.60;99.90;;;;;;5073026;28;20074;-68
2023/01/22 09:24:50;;;;;;;10.82;4.70;;;3.60;99.90;;;;;;5072725;28;20032;-69
2023/01/22 09:27:15;;;;;;;11.32;4.50;;;3.70;99.90;;;;;;5073233;28;20037;-69
2023/01/22 09:29:41;;;;;;;7.60;3.97;;;3.70;99.90;;;;;;5072933;28;20037;-69
2023/01/22 09:32:07;;;;;;;9.57;4.68;;;3.70;99.90;;;;;;5072878;28;20020;-68
2023/01/22 09:34:33;;;;;;;8.15;3.53;;;3.70;99.90;;;;;;5072403;28;20035;-69
2023/01/22 09:37:01;;;;;;;7.30;3.55;;;3.70;99.90;;;;;;5071889;28;20028;-70
2023/01/22 09:39:27;;;;;;;5.93;3.03;;;3.70;99.90;;;;;;5072690;28;20028;-69
2023/01/22 09:41:56;;;;;;;10.30;3.47;;;3.60;99.90;;;;;;5072635;28;20112;-68
2023/01/22 09:44:28;;;;;;;8.73;4.43;;;3.60;99.90;;;;;;5072649;28;20032;-69
2023/01/22 09:47:40;;;;;;;10.40;4.20;;;3.50;99.90;;;;;;5054660;28;20048;-69
2023/01/22 09:50:19;;;;;;;10.45;4.63;;;3.50;99.90;;;;;;5057643;28;20049;-70
2023/01/22 09:52:45;;;;;;;10.32;3.78;;;3.60;99.90;;;;;;5072657;28;20093;-70
2023/01/22 09:55:14;;;;;;;6.65;3.05;;;3.60;99.90;;;;;;5073133;28;20043;-69
2023/01/22 09:57:44;;;;;;;8.77;4.25;;;3.60;99.90;;;;;;5072635;28;20485;-70
2023/01/22 10:00:24;;;;;;;12.07;5.32;;;3.50;99.90;;;;;;5072490;28;20126;-68
2023/01/22 10:03:01;;;;;;;6.90;3.72;;;3.60;99.90;;;;;;5054625;28;20029;-68
2023/01/22 10:05:39;;;;;;;11.07;4.05;;;3.60;99.90;;;;;;5072680;28;20120;-69
2023/01/22 10:08:25;;;;;;;7.22;3.13;;;3.60;99.90;;;;;;5072550;28;20033;-69
2023/01/22 10:10:56;;;;;;;11.63;5.13;;;3.70;99.90;;;;;;5067961;28;20047;-69
2023/01/22 10:13:23;;;;;;;7.83;3.90;;;3.70;99.90;;;;;;5061582;28;20368;-68
2023/01/22 10:15:51;;;;;;;8.02;3.58;;;3.70;99.90;;;;;;5062612;28;20253;-69
2023/01/22 10:18:26;;;;;;;8.38;3.78;;;3.70;99.90;;;;;;5060031;28;20044;-69
2023/01/22 10:20:53;;;;;;;10.82;4.28;;;3.70;99.90;;;;;;5063665;28;20090;-70
2023/01/22 10:23:21;;;;;;;7.57;3.97;;;3.70;99.90;;;;;;5072611;28;20055;-70
2023/01/22 10:25:47;;;;;;;10.60;3.78;;;3.70;99.90;;;;;;5072416;28;20055;-68
2023/01/22 10:28:14;;;;;;;8.15;3.35;;;3.80;99.90;;;;;;5072432;28;20055;-70
2023/01/22 10:30:49;;;;;;;8.95;3.80;;;3.90;99.90;;;;;;5072504;28;20040;-68
2023/01/22 10:33:17;;;;;;;8.32;3.65;;;3.90;99.90;;;;;;5071944;28;20024;-70
2023/01/22 10:35:47;;;;;;;7.35;3.65;;;3.90;99.90;;;;;;5053667;28;20360;-70
2023/01/22 10:38:29;;;;;;;10.02;3.50;;;4.00;99.90;;;;;;5071919;28;20086;-68
2023/01/22 10:40:58;;;;;;;10.50;3.95;;;3.90;99.90;;;;;;5072025;28;20103;-70
2023/01/22 10:43:38;;;;;;;10.23;3.38;;;3.90;99.90;;;;;;5071968;28;20020;-68
2023/01/22 10:46:21;;;;;;;7.22;3.50;;;3.90;99.90;;;;;;5071332;28;20028;-68
2023/01/22 10:49:07;;;;;;;10.25;3.80;;;3.90;99.90;;;;;;5072742;28;20032;-70
2023/01/22 10:51:38;;;;;;;10.18;4.20;;;3.90;99.90;;;;;;5075802;28;20057;-69
2023/01/22 10:54:31;;;;;;;11.15;3.78;;;3.90;99.90;;;;;;5076052;28;20449;-68
2023/01/22 10:57:20;;;;;;;10.95;3.28;;;3.90;99.90;;;;;;5057619;28;20071;-71
2023/01/22 11:00:13;;;;;;;10.85;4.55;;;3.90;99.90;;;;;;5075126;28;20032;-69
2023/01/22 11:02:42;;;;;;;11.35;4.35;;;3.90;99.90;;;;;;5074824;28;20021;-69
2023/01/22 11:05:14;;;;;;;10.00;3.50;;;3.90;99.90;;;;;;5075080;28;20069;-69
2023/01/22 11:07:41;;;;;;;8.73;3.42;;;4.00;99.90;;;;;;5074916;28;20029;-69
2023/01/22 11:10:17;;;;;;;9.25;3.65;;;4.00;99.90;;;;;;5075426;28;20089;-68
2023/01/22 11:12:48;;;;;;;10.43;3.65;;;4.00;99.90;;;;;;5075503;28;20051;-69
2023/01/22 11:15:37;;;;;;;11.27;4.27;;;4.10;99.90;;;;;;5075187;28;20039;-69
2023/01/22 11:18:04;;;;;;;6.70;3.60;;;4.10;99.90;;;;;;5074320;28;20047;-69
2023/01/22 11:20:47;;;;;;;7.85;3.78;;;4.20;99.90;;;;;;5074460;28;20074;-69
2023/01/22 11:23:35;;;;;;;14.10;4.32;;;4.20;99.90;;;;;;5075474;28;20025;-69
2023/01/22 11:26:10;;;;;;;7.97;3.63;;;4.30;99.90;;;;;;5057111;28;20024;-70
2023/01/22 11:28:52;;;;;;;8.32;3.60;;;4.40;99.90;;;;;;5074960;28;20028;-69
2023/01/22 11:31:43;;;;;;;;;;;4.40;99.90;;;;;;5075320;28;20029;-68
2023/01/22 11:34:46;;;;;;;8.43;3.65;;;4.50;99.90;;;;;;5072599;28;20260;-68
2023/01/22 11:37:42;;;;;;;8.15;3.13;;;4.40;99.90;;;;;;5058473;28;20123;-70
2023/01/22 11:40:27;;;;;;;7.90;3.67;;;4.30;99.90;;;;;;5074762;28;20468;-70
2023/01/22 11:43:30;;;;;;;7.63;3.35;;;4.30;99.90;;;;;;5074468;28;20119;-70
2023/01/22 11:46:01;;;;;;;9.32;3.15;;;4.30;99.90;;;;;;5074572;28;20028;-69
2023/01/22 11:48:42;;;;;;;6.90;3.35;;;4.30;99.90;;;;;;5074258;28;20464;-69
2023/01/22 11:51:22;;;;;;;5.47;2.72;;;4.30;99.90;;;;;;5074775;28;20041;-69
2023/01/22 11:54:26;;;;;;;9.70;3.30;;;4.40;99.90;;;;;;5074776;28;20087;-70
2023/01/22 11:57:16;;;;;;;6.90;3.03;;;4.50;99.90;;;;;;5052419;28;20071;-70
2023/01/22 12:00:11;;;;;;;7.85;3.42;;;4.50;99.90;;;;;;5073387;28;20039;-70
2023/01/22 12:03:03;;;;;;;5.93;3.17;;;4.50;99.90;;;;;;5065836;28;20020;-69
2023/01/22 12:06:14;;;;;;;7.80;3.45;;;4.60;99.90;;;;;;5073936;28;20141;-70
2023/01/22 12:09:00;;;;;;;9.13;4.05;;;4.70;99.90;;;;;;5074245;28;20029;-69
2023/01/22 12:11:35;;;;;;;6.75;2.92;;;4.70;99.90;;;;;;5073699;28;20086;-70
2023/01/22 12:14:21;;;;;;;8.43;3.90;;;4.60;99.90;;;;;;5074144;28;20028;-70
2023/01/22 12:17:18;;;;;;;10.40;3.20;;;4.70;99.90;;;;;;5073643;28;20024;-70
2023/01/22 12:20:24;;;;;;;7.75;3.35;;;4.60;99.90;;;;;;5073684;28;20079;-69
2023/01/22 12:22:58;;;;;;;6.30;3.67;;;4.70;99.90;;;;;;5074085;28;20509;-69
2023/01/22 12:25:58;;;;;;;10.93;3.70;;;4.70;99.90;;;;;;5073941;28;20028;-70
2023/01/22 12:28:47;;;;;;;9.05;3.88;;;4.60;99.90;;;;;;5073575;28;20074;-70
2023/01/22 12:31:20;;;;;;;8.23;3.20;;;4.60;99.90;;;;;;5073438;28;20032;-70
2023/01/22 12:33:46;;;;;;;10.40;4.55;;;4.60;99.90;;;;;;5073691;28;20035;-70
2023/01/22 12:36:17;;;;;;;12.27;4.05;;;4.70;99.90;;;;;;5073562;28;20024;-69
2023/01/22 12:39:29;;;;;;;10.63;4.15;;;4.70;99.90;;;;;;5073441;28;20074;-70
2023/01/22 12:42:20;;;;;;;11.95;4.22;;;4.80;99.90;;;;;;5009535;28;20039;-70
2023/01/22 12:45:03;;;;;;;11.05;4.03;;;4.80;99.90;;;;;;5073717;28;20028;-70
2023/01/22 12:47:44;;;;;;;8.43;3.92;;;4.80;99.90;;;;;;5073033;28;20020;-69
2023/01/22 12:50:21;;;;;;;9.50;4.10;;;4.80;99.90;;;;;;5072916;28;20032;-69
2023/01/22 12:53:05;;;;;;;5.53;3.00;;;4.90;99.90;;;;;;5055059;28;20493;-69
2023/01/22 12:55:36;;;;;;;8.70;2.78;;;4.90;99.90;;;;;;5072837;28;20087;-70
2023/01/22 12:58:03;;;;;;;9.60;4.13;;;4.90;99.90;;;;;;5055265;28;20048;-69
2023/01/22 13:00:37;;;;;;;8.43;3.90;;;4.90;99.90;;;;;;5073363;28;20078;-70
2023/01/22 13:03:21;;;;;;;9.85;4.15;;;5.00;99.90;;;;;;5073081;28;20464;-69
2023/01/22 13:05:49;;;;;;;9.07;3.40;;;5.20;99.90;;;;;;5072287;28;20033;-70
2023/01/22 13:08:20;;;;;;;10.68;3.40;;;5.20;99.90;;;;;;5072171;28;20036;-69
2023/01/22 13:10:58;;;;;;;6.80;3.00;;;5.20;99.90;;;;;;5075916;28;20039;-70